createdAt,value
2018-01-21T00:02:21.307Z,23.53
2018-01-21T00:04:48.867Z,24.47
2018-01-21T00:07:16.359Z,23.90
2018-01-21T00:09:43.883Z,23.40
2018-01-21T00:12:11.376Z,25.30
2018-01-21T00:14:38.900Z,25.50
2018-01-21T00:17:06.663Z,21.73
2018-01-21T00:19:34.122Z,24.00
2018-01-21T00:22:01.683Z,23.73
2018-01-21T00:24:29.239Z,24.67
2018-01-21T00:26:56.799Z,23.23
2018-01-21T00:29:24.357Z,24.40
2018-01-21T00:31:51.781Z,26.00
2018-01-21T00:34:19.478Z,23.43
2018-01-21T00:36:47.036Z,23.83
2018-01-21T00:39:14.596Z,23.17
2018-01-21T00:41:42.155Z,26.00
2018-01-21T00:44:09.560Z,26.33
2018-01-21T00:46:37.152Z,24.50
2018-01-21T00:49:04.775Z,25.30
2018-01-21T00:51:32.289Z,24.43
2018-01-21T00:53:59.850Z,25.57
2018-01-21T00:56:27.308Z,26.47
2018-01-21T00:58:54.868Z,25.90
2018-01-21T01:01:22.359Z,24.70
2018-01-21T01:03:49.883Z,24.67
2018-01-21T01:06:17.376Z,26.30
2018-01-21T01:08:44.833Z,25.17
2018-01-21T01:11:12.356Z,26.40
2018-01-21T01:13:39.915Z,25.47
2018-01-21T01:16:07.476Z,24.60
2018-01-21T01:18:34.886Z,23.97
2018-01-21T01:21:02.389Z,24.73
2018-01-21T01:23:29.884Z,25.37
2018-01-21T01:25:57.341Z,25.27
2018-01-21T01:28:25.066Z,26.40
2018-01-21T01:30:52.626Z,27.23
2018-01-21T01:33:20.037Z,25.50
2018-01-21T01:35:47.540Z,25.00
2018-01-21T01:38:15.100Z,26.70
2018-01-21T01:40:42.596Z,27.03
2018-01-21T01:43:10.117Z,26.97
2018-01-21T01:45:37.677Z,27.90
2018-01-21T01:48:05.440Z,25.83
2018-01-21T01:50:32.999Z,27.10
2018-01-21T01:53:00.559Z,28.80
2018-01-21T01:55:28.023Z,28.17
2018-01-21T01:57:55.577Z,26.50
2018-01-21T02:00:23.136Z,27.87
2018-01-21T02:02:50.694Z,26.07
2018-01-21T02:05:18.256Z,25.47
2018-01-21T02:07:45.814Z,27.57
2018-01-21T02:10:13.373Z,27.70
2018-01-21T02:12:40.932Z,27.87
2018-01-21T02:15:08.492Z,25.17
2018-01-21T02:17:35.983Z,27.27
2018-01-21T02:20:03.406Z,27.37
2018-01-21T02:22:30.964Z,25.80
2018-01-21T02:24:58.422Z,26.17
2018-01-21T02:27:25.980Z,24.93
2018-01-21T02:29:53.411Z,25.23
2018-01-21T02:32:20.900Z,24.80
2018-01-21T02:34:48.456Z,24.60
2018-01-21T02:37:16.014Z,24.00
2018-01-21T02:39:43.509Z,24.43
2018-01-21T02:42:11.031Z,25.37
2018-01-21T02:44:38.712Z,23.97
2018-01-21T02:47:06.120Z,23.50
2018-01-21T02:49:33.606Z,23.87
2018-01-21T02:52:01.101Z,23.97
2018-01-21T02:54:28.533Z,25.07
2018-01-21T02:56:56.081Z,23.00
2018-01-21T02:59:23.640Z,23.57
2018-01-21T03:01:51.132Z,24.43
2018-01-21T03:04:18.554Z,24.83
2018-01-21T03:06:46.113Z,25.50
2018-01-21T03:09:13.612Z,24.50
2018-01-21T03:11:41.036Z,24.17
2018-01-21T03:14:08.587Z,24.33
2018-01-21T03:16:36.146Z,25.17
2018-01-21T03:19:03.640Z,24.90
2018-01-21T03:21:31.095Z,23.40
2018-01-21T03:23:58.621Z,25.20
2018-01-21T03:26:26.179Z,25.50
2018-01-21T03:28:53.674Z,23.70
2018-01-21T03:31:21.196Z,25.10
2018-01-21T03:33:48.758Z,22.67
2018-01-21T03:36:16.315Z,23.03
2018-01-21T03:38:43.874Z,22.93
2018-01-21T03:41:11.367Z,23.70
2018-01-21T03:43:38.889Z,25.60
2018-01-21T03:46:06.449Z,23.77
2018-01-21T03:48:34.009Z,22.77
2018-01-21T03:51:01.569Z,22.70
2018-01-21T03:53:29.130Z,22.20
2018-01-21T03:55:56.686Z,21.80
2018-01-21T03:58:24.246Z,21.30
2018-01-21T04:00:51.806Z,20.80
2018-01-21T04:03:19.365Z,22.07
2018-01-21T04:05:46.925Z,21.97
2018-01-21T04:08:14.484Z,21.90
2018-01-21T04:10:42.043Z,21.93
2018-01-21T04:13:09.654Z,21.57
2018-01-21T04:15:37.264Z,21.07
2018-01-21T04:18:04.758Z,22.43
2018-01-21T04:20:32.281Z,20.53
2018-01-21T04:22:59.841Z,21.20
2018-01-21T04:25:27.336Z,22.63
2018-01-21T04:27:54.740Z,21.27
2018-01-21T04:30:22.314Z,21.30
2018-01-21T04:32:49.873Z,22.30
2018-01-21T04:35:17.434Z,20.77
2018-01-21T04:37:48.680Z,21.17
2018-01-21T04:40:16.087Z,22.20
2018-01-21T04:42:43.732Z,22.10
2018-01-21T04:45:11.193Z,22.50
2018-01-21T04:47:38.711Z,21.67
2018-01-21T04:50:06.217Z,22.80
2018-01-21T04:52:33.830Z,20.67
2018-01-21T04:55:01.288Z,21.90
2018-01-21T04:57:28.744Z,20.90
2018-01-21T04:59:56.239Z,21.20
2018-01-21T05:02:23.761Z,19.07
2018-01-21T05:04:51.320Z,19.30
2018-01-21T05:07:18.780Z,20.20
2018-01-21T05:09:46.273Z,20.97
2018-01-21T05:12:13.793Z,21.23
2018-01-21T05:14:41.287Z,19.47
2018-01-21T05:17:08.811Z,19.00
2018-01-21T05:19:36.303Z,18.93
2018-01-21T05:22:03.928Z,19.43
2018-01-21T05:24:31.489Z,19.87
2018-01-21T05:26:59.047Z,18.87
2018-01-21T05:29:26.608Z,19.50
2018-01-21T05:31:54.577Z,18.77
2018-01-21T05:34:22.136Z,18.63
2018-01-21T05:36:49.695Z,18.07
2018-01-21T05:39:17.256Z,19.60
2018-01-21T05:41:44.814Z,18.83
2018-01-21T05:44:12.320Z,18.80
2018-01-21T05:46:39.933Z,19.13
2018-01-21T05:49:07.405Z,19.07
2018-01-21T05:51:34.887Z,20.20
2018-01-21T05:54:02.344Z,20.63
2018-01-21T05:56:29.969Z,20.27
2018-01-21T05:58:57.529Z,20.00
2018-01-21T06:01:25.088Z,19.97
2018-01-21T06:03:52.644Z,19.27
2018-01-21T06:06:20.104Z,18.17
2018-01-21T06:08:47.597Z,18.83
2018-01-21T06:11:15.118Z,20.60
2018-01-21T06:13:42.677Z,19.97
2018-01-21T06:16:10.237Z,21.27
2018-01-21T06:18:37.796Z,19.10
2018-01-21T06:21:05.356Z,20.23
2018-01-21T06:23:32.852Z,21.30
2018-01-21T06:26:00.304Z,21.10
2018-01-21T06:28:27.764Z,22.53
2018-01-21T06:30:55.289Z,21.70
2018-01-21T06:33:22.847Z,21.63
2018-01-21T06:35:50.614Z,22.30
2018-01-21T06:38:18.173Z,21.47
2018-01-21T06:40:45.732Z,20.47
2018-01-21T06:43:13.290Z,21.63
2018-01-21T06:45:40.899Z,20.70
2018-01-21T06:48:08.410Z,21.33
2018-01-21T06:50:36.946Z,20.90
2018-01-21T06:53:04.376Z,20.70
2018-01-21T06:55:32.109Z,21.07
2018-01-21T06:57:59.566Z,21.83
2018-01-21T07:00:27.125Z,20.93
2018-01-21T07:02:54.685Z,18.57
2018-01-21T07:05:22.113Z,21.17
2018-01-21T07:07:49.619Z,20.37
2018-01-21T07:10:17.248Z,21.23
2018-01-21T07:12:44.820Z,20.73
2018-01-21T07:15:12.379Z,20.37
2018-01-21T07:17:39.874Z,18.80
2018-01-21T07:20:07.399Z,20.10
2018-01-21T07:22:34.956Z,21.13
2018-01-21T07:25:02.670Z,28.40
2018-01-21T07:27:30.177Z,22.00
2018-01-21T07:29:57.640Z,22.37
2018-01-21T07:32:25.091Z,20.60
2018-01-21T07:34:52.651Z,19.80
2018-01-21T07:37:20.209Z,20.27
2018-01-21T07:39:47.769Z,21.83
2018-01-21T07:42:15.354Z,20.50
2018-01-21T07:44:43.810Z,21.90
2018-01-21T07:47:11.369Z,21.03
2018-01-21T07:49:39.145Z,21.47
2018-01-21T07:52:06.591Z,19.67
2018-01-21T07:54:34.150Z,20.97
2018-01-21T07:57:01.915Z,20.43
2018-01-21T07:59:29.419Z,20.50
2018-01-21T08:01:56.837Z,20.00
2018-01-21T08:04:24.900Z,20.00
2018-01-21T08:06:52.357Z,20.77
2018-01-21T08:09:19.814Z,20.87
2018-01-21T08:11:47.374Z,20.27
2018-01-21T08:14:14.933Z,20.27
2018-01-21T08:16:42.492Z,19.43
2018-01-21T08:19:10.052Z,19.10
2018-01-21T08:21:37.473Z,18.33
2018-01-21T08:24:04.970Z,17.37
2018-01-21T08:26:32.462Z,19.63
2018-01-21T08:28:59.982Z,19.20
2018-01-21T08:31:27.450Z,18.20
2018-01-21T08:34:00.630Z,18.13
2018-01-21T08:36:34.064Z,19.40
2018-01-21T08:39:07.124Z,18.73
2018-01-21T08:41:53.311Z,20.30
2018-01-21T08:44:20.749Z,18.70
2018-01-21T08:46:48.329Z,17.63
2018-01-21T08:49:15.888Z,17.70
2018-01-21T08:51:43.448Z,18.40
2018-01-21T08:54:11.007Z,18.50
2018-01-21T08:56:38.414Z,19.60
2018-01-21T08:59:06.146Z,20.10
2018-01-21T09:01:33.691Z,18.60
2018-01-21T09:04:01.244Z,19.10
2018-01-21T09:06:29.008Z,18.93
2018-01-21T09:08:56.570Z,19.17
2018-01-21T09:11:24.128Z,19.10
2018-01-21T09:13:51.576Z,17.90
2018-01-21T09:16:19.143Z,17.40
2018-01-21T09:18:46.652Z,17.50
2018-01-21T09:21:14.161Z,18.80
2018-01-21T09:23:41.822Z,18.93
2018-01-21T09:26:09.332Z,19.47
2018-01-21T09:28:36.783Z,19.53
2018-01-21T09:31:04.398Z,18.47
2018-01-21T09:33:31.957Z,19.60
2018-01-21T09:35:59.517Z,18.07
2018-01-21T09:38:26.951Z,18.90
2018-01-21T09:40:54.534Z,18.43
2018-01-21T09:43:22.095Z,19.80
2018-01-21T09:45:49.552Z,18.50
2018-01-21T09:48:17.025Z,18.30
2018-01-21T09:50:44.466Z,19.80
2018-01-21T09:53:11.956Z,20.57
2018-01-21T09:55:39.483Z,19.50
2018-01-21T09:58:06.976Z,20.07
2018-01-21T10:00:34.431Z,18.60
2018-01-21T10:03:01.888Z,17.83
2018-01-21T10:05:29.345Z,18.90
2018-01-21T10:07:56.746Z,19.43
2018-01-21T10:10:24.326Z,18.77
2018-01-21T10:12:51.887Z,19.63
2018-01-21T10:15:19.485Z,18.33
2018-01-21T10:17:47.059Z,18.93
2018-01-21T10:20:14.667Z,19.77
2018-01-21T10:22:42.328Z,19.40
2018-01-21T10:25:09.887Z,18.70
2018-01-21T10:27:37.651Z,18.53
2018-01-21T10:30:05.215Z,19.13
2018-01-21T10:32:32.772Z,18.10
2018-01-21T10:35:00.260Z,19.83
2018-01-21T10:37:28.025Z,19.50
2018-01-21T10:39:55.569Z,20.50
2018-01-21T10:42:23.110Z,19.07
2018-01-21T10:44:50.606Z,20.70
2018-01-21T10:47:18.254Z,18.10
2018-01-21T10:49:45.716Z,19.63
2018-01-21T10:52:13.245Z,20.57
2018-01-21T10:54:40.907Z,19.80
2018-01-21T10:57:08.466Z,19.90
2018-01-21T10:59:36.039Z,20.97
2018-01-21T11:02:03.586Z,20.30
2018-01-21T11:04:31.092Z,20.17
2018-01-21T11:06:58.739Z,20.10
2018-01-21T11:09:26.264Z,20.10
2018-01-21T11:11:53.860Z,20.40
2018-01-21T11:14:21.485Z,22.17
2018-01-21T11:16:48.981Z,24.13
2018-01-21T11:19:16.502Z,22.50
2018-01-21T11:21:44.163Z,23.10
2018-01-21T11:24:11.722Z,20.00
2018-01-21T11:26:39.282Z,18.77
2018-01-21T11:29:06.841Z,19.10
2018-01-21T11:31:34.401Z,19.43
2018-01-21T11:34:01.858Z,19.73
2018-01-21T11:36:29.316Z,21.33
2018-01-21T11:38:56.874Z,22.50
2018-01-21T11:41:24.433Z,19.60
2018-01-21T11:43:52.340Z,21.63
2018-01-21T11:46:19.803Z,22.00
2018-01-21T11:48:47.419Z,20.87
2018-01-21T11:51:15.029Z,20.87
2018-01-21T11:53:42.538Z,21.67
2018-01-21T11:56:10.100Z,19.73
2018-01-21T11:58:37.567Z,20.87
2018-01-21T12:01:04.972Z,21.60
2018-01-21T12:03:32.377Z,19.83
2018-01-21T12:05:59.929Z,20.57
2018-01-21T12:08:27.485Z,20.67
2018-01-21T12:10:55.052Z,20.00
2018-01-21T12:13:22.816Z,19.83
2018-01-21T12:15:50.377Z,20.80
2018-01-21T12:18:17.927Z,22.13
2018-01-21T12:20:45.385Z,21.57
2018-01-21T12:23:12.948Z,21.47
2018-01-21T12:25:40.694Z,22.97
2018-01-21T12:28:08.213Z,22.90
2018-01-21T12:30:35.691Z,20.90
2018-01-21T12:33:03.292Z,19.50
2018-01-21T12:35:30.851Z,19.80
2018-01-21T12:37:58.389Z,21.17
2018-01-21T12:40:25.967Z,20.97
2018-01-21T12:42:53.530Z,19.73
2018-01-21T12:45:21.186Z,19.90
2018-01-21T12:47:48.743Z,21.60
2018-01-21T12:50:16.305Z,21.07
2018-01-21T12:52:44.180Z,21.97
2018-01-21T12:55:11.668Z,23.03
2018-01-21T12:57:39.188Z,21.27
2018-01-21T13:00:06.744Z,21.30
2018-01-21T13:02:34.309Z,21.00
2018-01-21T13:05:01.810Z,21.57
2018-01-21T13:07:29.430Z,22.70
2018-01-21T13:09:56.983Z,22.13
2018-01-21T13:12:24.542Z,21.87
2018-01-21T13:14:52.108Z,21.20
2018-01-21T13:17:19.661Z,20.53
2018-01-21T13:19:47.339Z,21.13
2018-01-21T13:22:15.088Z,22.10
2018-01-21T13:24:42.592Z,20.13
2018-01-21T13:27:10.210Z,20.13
2018-01-21T13:29:37.904Z,20.70
2018-01-21T13:32:05.435Z,20.37
2018-01-21T13:34:32.928Z,19.73
2018-01-21T13:37:00.451Z,19.27
2018-01-21T13:39:27.939Z,21.20
2018-01-21T13:41:55.403Z,19.93
2018-01-21T13:44:22.955Z,18.77
2018-01-21T13:46:50.476Z,18.17
2018-01-21T13:49:17.909Z,19.37
2018-01-21T13:51:45.492Z,18.03
2018-01-21T13:54:12.951Z,17.87
2018-01-21T13:56:40.387Z,18.97
2018-01-21T13:59:07.844Z,19.83
2018-01-21T14:01:35.437Z,19.07
2018-01-21T14:04:02.937Z,19.40
2018-01-21T14:06:30.542Z,17.53
2018-01-21T14:08:58.202Z,19.43
2018-01-21T14:11:25.608Z,17.07
2018-01-21T14:13:53.013Z,18.30
2018-01-21T14:16:20.575Z,19.60
2018-01-21T14:18:48.133Z,17.80
2018-01-21T14:21:15.693Z,20.10
2018-01-21T14:23:43.188Z,18.47
2018-01-21T14:26:10.715Z,19.27
2018-01-21T14:28:38.167Z,18.47
2018-01-21T14:31:05.624Z,19.07
2018-01-21T14:33:33.185Z,17.80
2018-01-21T14:36:00.686Z,20.37
2018-01-21T14:38:28.133Z,18.50
2018-01-21T14:40:55.861Z,22.70
2018-01-21T14:43:23.422Z,19.40
2018-01-21T14:45:50.983Z,19.30
2018-01-21T14:48:18.643Z,19.40
2018-01-21T14:50:46.143Z,19.97
2018-01-21T14:53:13.658Z,19.50
2018-01-21T14:55:41.407Z,17.60
2018-01-21T14:58:08.918Z,19.87
2018-01-21T15:00:36.442Z,19.87
2018-01-21T15:03:03.904Z,20.63
2018-01-21T15:05:31.404Z,20.07
2018-01-21T15:07:58.848Z,20.33
2018-01-21T15:10:26.472Z,19.80
2018-01-21T15:12:54.135Z,18.80
2018-01-21T15:15:21.693Z,20.67
2018-01-21T15:17:49.253Z,20.87
2018-01-21T15:20:16.749Z,20.60
2018-01-21T15:22:44.680Z,21.70
2018-01-21T15:25:12.238Z,20.63
2018-01-21T15:27:39.798Z,25.40
2018-01-21T15:30:07.358Z,20.90
2018-01-21T15:32:34.916Z,20.77
2018-01-21T15:35:02.478Z,19.93
2018-01-21T15:37:30.036Z,21.57
2018-01-21T15:39:57.533Z,21.97
2018-01-21T15:42:25.051Z,22.20
2018-01-21T15:44:52.612Z,23.73
2018-01-21T15:47:20.273Z,20.30
2018-01-21T15:49:47.837Z,20.93
2018-01-21T15:52:15.275Z,20.90
2018-01-21T15:54:42.748Z,19.53
2018-01-21T15:57:10.203Z,20.60
2018-01-21T15:59:37.716Z,19.50
2018-01-21T16:02:05.270Z,21.23
2018-01-21T16:04:32.780Z,19.63
2018-01-21T16:07:00.287Z,20.57
2018-01-21T16:09:27.899Z,19.23
2018-01-21T16:11:55.458Z,20.30
2018-01-21T16:14:23.017Z,19.23
2018-01-21T16:16:50.680Z,19.90
2018-01-21T16:19:18.103Z,19.63
2018-01-21T16:21:45.542Z,20.70
2018-01-21T16:24:12.994Z,21.17
2018-01-21T16:26:40.551Z,20.40
2018-01-21T16:29:08.066Z,19.80
2018-01-21T16:31:35.476Z,20.27
2018-01-21T16:34:03.021Z,20.40
2018-01-21T16:36:30.540Z,21.40
2018-01-21T16:38:58.060Z,19.37
2018-01-21T16:41:25.661Z,19.37
2018-01-21T16:43:53.157Z,20.10
2018-01-21T16:46:20.676Z,19.63
2018-01-21T16:48:48.242Z,20.93
2018-01-21T16:51:15.794Z,20.77
2018-01-21T16:53:43.288Z,21.63
2018-01-21T16:56:10.811Z,22.13
2018-01-21T16:58:38.373Z,22.00
2018-01-21T17:01:05.930Z,22.70
2018-01-21T17:03:33.489Z,22.40
2018-01-21T17:06:00.912Z,21.37
2018-01-21T17:08:28.513Z,23.03
2018-01-21T17:10:56.065Z,23.10
2018-01-21T17:13:23.625Z,22.90
2018-01-21T17:15:51.120Z,22.43
2018-01-21T17:18:18.576Z,23.80
2018-01-21T17:20:46.098Z,23.60
2018-01-21T17:23:13.592Z,23.80
2018-01-21T17:25:41.048Z,24.30
2018-01-21T17:28:08.508Z,23.20
2018-01-21T17:30:35.970Z,25.97
2018-01-21T17:33:03.486Z,25.23
2018-01-21T17:35:31.045Z,27.10
2018-01-21T17:37:58.541Z,27.70
2018-01-21T17:40:26.061Z,25.80
2018-01-21T17:42:53.621Z,24.83
2018-01-21T17:45:21.180Z,25.00
2018-01-21T17:47:48.623Z,25.40
2018-01-21T17:50:16.257Z,27.80
2018-01-21T17:52:43.803Z,26.60
2018-01-21T17:55:12.307Z,27.17
2018-01-21T17:57:40.949Z,26.47
2018-01-21T18:00:08.501Z,28.27
2018-01-21T18:02:35.993Z,26.73
2018-01-21T18:05:03.410Z,25.73
2018-01-21T18:07:30.956Z,26.83
2018-01-21T18:09:58.410Z,26.93
2018-01-21T18:12:25.972Z,26.80
2018-01-21T18:14:53.532Z,26.77
2018-01-21T18:17:21.047Z,24.33
2018-01-21T18:19:48.513Z,26.10
2018-01-21T18:22:16.108Z,25.10
2018-01-21T18:24:43.704Z,25.73
2018-01-21T18:27:11.276Z,25.80
2018-01-21T18:29:38.786Z,25.53
2018-01-21T18:32:06.243Z,22.37
2018-01-21T18:34:33.803Z,22.93
2018-01-21T18:37:01.569Z,24.10
2018-01-21T18:39:29.023Z,24.70
2018-01-21T18:41:56.600Z,23.30
2018-01-21T18:44:24.145Z,25.03
2018-01-21T18:46:51.708Z,24.47
2018-01-21T18:49:19.405Z,24.40
2018-01-21T18:51:46.926Z,24.57
2018-01-21T18:54:14.484Z,23.40
2018-01-21T18:56:41.939Z,23.13
2018-01-21T18:59:09.499Z,22.87
2018-01-21T19:01:37.059Z,22.33
2018-01-21T19:04:04.576Z,23.97
2018-01-21T19:06:32.112Z,23.13
2018-01-21T19:08:59.568Z,22.67
2018-01-21T19:11:27.033Z,23.30
2018-01-21T19:13:54.651Z,25.67
2018-01-21T19:16:22.157Z,25.37
2018-01-21T19:18:49.792Z,23.83
2018-01-21T19:21:17.331Z,24.90
2018-01-21T19:23:44.788Z,27.43
2018-01-21T19:26:12.346Z,27.57
2018-01-21T19:28:39.797Z,29.80
2018-01-21T19:31:07.362Z,28.43
2018-01-21T19:33:34.922Z,27.73
2018-01-21T19:36:02.583Z,26.30
2018-01-21T19:38:46.937Z,26.53
2018-01-21T19:41:17.366Z,25.63
2018-01-21T19:43:50.622Z,26.33
2018-01-21T19:46:18.217Z,28.40
2018-01-21T19:48:45.776Z,26.43
2018-01-21T19:51:13.272Z,28.17
2018-01-21T19:53:40.943Z,26.13
2018-01-21T19:56:08.455Z,26.20
2018-01-21T19:58:39.394Z,26.90
2018-01-21T20:01:06.954Z,28.60
2018-01-21T20:03:34.512Z,27.53
2018-01-21T20:06:02.624Z,26.40
2018-01-21T20:08:30.191Z,25.57
2018-01-21T20:10:57.708Z,27.97
2018-01-21T20:13:25.276Z,26.23
2018-01-21T20:15:52.924Z,22.60
2018-01-21T20:18:20.482Z,19.53
2018-01-21T20:20:48.246Z,18.57
2018-01-21T20:23:15.807Z,18.67
2018-01-21T20:25:43.369Z,22.20
2018-01-21T20:28:10.925Z,22.73
2018-01-21T20:30:38.485Z,24.60
2018-01-21T20:33:05.980Z,21.80
2018-01-21T20:35:33.609Z,22.63
2018-01-21T20:38:01.163Z,19.57
2018-01-21T20:40:28.722Z,16.30
2018-01-21T20:42:56.283Z,15.33
2018-01-21T20:45:24.356Z,19.00
2018-01-21T20:47:52.119Z,18.30
2018-01-21T20:50:19.677Z,17.90
2018-01-21T20:52:47.236Z,17.80
2018-01-21T20:55:14.795Z,18.13
2018-01-21T20:57:42.357Z,18.30
2018-01-21T21:00:10.071Z,18.07
2018-01-21T21:02:37.679Z,18.20
2018-01-21T21:05:05.341Z,17.13
2018-01-21T21:07:32.901Z,16.73
2018-01-21T21:10:00.460Z,18.37
2018-01-21T21:12:27.956Z,16.70
2018-01-21T21:14:55.524Z,18.37
2018-01-21T21:17:22.998Z,16.93
2018-01-21T21:19:50.423Z,17.33
2018-01-21T21:22:17.950Z,14.50
2018-01-21T21:24:45.509Z,16.47
2018-01-21T21:27:13.178Z,16.50
2018-01-21T21:29:40.729Z,15.80
2018-01-21T21:32:08.227Z,15.03
2018-01-21T21:34:35.852Z,15.30
2018-01-21T21:37:03.409Z,16.00
2018-01-21T21:39:30.830Z,14.57
2018-01-21T21:41:58.296Z,15.63
2018-01-21T21:44:25.780Z,14.90
2018-01-21T21:46:53.341Z,17.27
2018-01-21T21:49:21.059Z,17.40
2018-01-21T21:51:48.600Z,17.37
2018-01-21T21:54:16.059Z,18.77
2018-01-21T21:56:43.576Z,19.40
2018-01-21T21:59:11.092Z,19.50
2018-01-21T22:01:38.593Z,20.27
2018-01-21T22:04:06.151Z,21.10
2018-01-21T22:06:33.712Z,19.87
2018-01-21T22:09:01.128Z,21.17
2018-01-21T22:11:28.831Z,19.70
2018-01-21T22:13:56.391Z,22.30
2018-01-21T22:16:24.666Z,21.73
2018-01-21T22:18:52.226Z,22.30
2018-01-21T22:21:19.785Z,20.00
2018-01-21T22:23:47.345Z,20.30
2018-01-21T22:26:14.904Z,20.10
2018-01-21T22:28:42.463Z,21.90
2018-01-21T22:31:10.167Z,21.20
2018-01-21T22:33:37.684Z,19.50
2018-01-21T22:36:05.244Z,20.97
2018-01-21T22:38:32.700Z,19.23
2018-01-21T22:41:00.260Z,18.63
2018-01-21T22:43:27.717Z,17.87
2018-01-21T22:45:55.210Z,18.97
2018-01-21T22:48:22.616Z,18.10
2018-01-21T22:50:50.193Z,19.30
2018-01-21T22:53:17.651Z,18.60
2018-01-21T22:55:45.208Z,19.60
2018-01-21T22:58:12.664Z,19.43
2018-01-21T23:00:40.160Z,19.70
2018-01-21T23:03:07.718Z,20.60
2018-01-21T23:05:35.239Z,19.37
2018-01-21T23:08:02.699Z,19.67
2018-01-21T23:10:30.125Z,20.20
2018-01-21T23:12:57.714Z,18.53
2018-01-21T23:15:25.274Z,19.10
2018-01-21T23:17:52.833Z,21.10
2018-01-21T23:20:26.536Z,19.40
2018-01-21T23:22:54.096Z,17.53
2018-01-21T23:25:21.655Z,17.30
2018-01-21T23:27:49.214Z,17.20
2018-01-21T23:30:16.707Z,19.07
2018-01-21T23:32:44.255Z,17.50
2018-01-21T23:35:11.791Z,16.60
2018-01-21T23:37:39.285Z,18.23
2018-01-21T23:40:06.910Z,17.60
2018-01-21T23:42:34.469Z,15.60
2018-01-21T23:45:02.029Z,17.77
2018-01-21T23:47:29.440Z,18.90
2018-01-21T23:49:57.045Z,17.50
2018-01-21T23:52:24.541Z,18.80
2018-01-21T23:54:51.999Z,18.77
2018-01-21T23:57:19.518Z,18.20
2018-01-21T23:59:47.012Z,17.10
